Terminal Aerodrome Forecast
Issued by NWS

Home | Current Version | Previous Version | Text Only | Print | Product List | Glossary On
Versions: 1 2 3 4 5 6 7 8 9 10 11 12 13 14 15 16
321
FTUS44 KTSA 291720
TAFFYV
TAF
KFYV 291720Z 2918/3018 08007KT P6SM SCT050
     FM300100 00000KT P6SM BKN250
      TEMPO 3009/3013 4SM BR
     FM301500 VRB03KT P6SM SCT050=

USA.gov is the U.S. government's official web portal to all federal, state and local government web resources and services.